createdAt,value
2019-04-10T00:00:49.657Z,13.40
2019-04-10T00:01:37.823Z,13.22
2019-04-10T00:02:25.940Z,13.18
2019-04-10T00:03:25.660Z,14.18
2019-04-10T00:04:00.809Z,12.98
2019-04-10T00:04:47.450Z,13.75
2019-04-10T00:05:34.232Z,12.55
2019-04-10T00:06:20.232Z,12.68
2019-04-10T00:07:12.739Z,12.70
2019-04-10T00:07:55.508Z,13.03
2019-04-10T00:08:42.165Z,12.68
2019-04-10T00:09:28.461Z,12.47
2019-04-10T00:10:14.508Z,13.18
2019-04-10T00:11:00.823Z,13.60
2019-04-10T00:11:47.269Z,13.58
2019-04-10T00:12:33.793Z,12.80
2019-04-10T00:13:20.572Z,13.72
2019-04-10T00:14:06.726Z,13.22
2019-04-10T00:14:52.858Z,12.45
2019-04-10T00:15:38.822Z,12.93
2019-04-10T00:16:24.753Z,12.40
2019-04-10T00:17:11.144Z,12.28
2019-04-10T00:17:57.810Z,13.85
2019-04-10T00:18:44.351Z,13.50
2019-04-10T00:19:30.869Z,12.78
2019-04-10T00:20:18.386Z,13.22
2019-04-10T00:21:05.084Z,12.35
2019-04-10T00:21:51.578Z,12.25
2019-04-10T00:22:38.203Z,12.93
2019-04-10T00:23:24.832Z,13.68
2019-04-10T00:24:11.547Z,12.33
2019-04-10T00:24:57.821Z,12.80
2019-04-10T00:25:43.847Z,13.28
2019-04-10T00:26:30.335Z,13.38
2019-04-10T00:27:16.683Z,13.05
2019-04-10T00:28:03.264Z,13.65
2019-04-10T00:28:49.774Z,13.70
2019-04-10T00:29:36.320Z,14.00
2019-04-10T00:30:22.526Z,12.93
2019-04-10T00:31:09.420Z,13.55
2019-04-10T00:31:56.368Z,12.55
2019-04-10T00:32:42.514Z,12.65
2019-04-10T00:33:29.080Z,13.22
2019-04-10T00:34:15.661Z,12.82
2019-04-10T00:35:02.520Z,13.55
2019-04-10T00:35:49.768Z,12.45
2019-04-10T00:36:35.935Z,12.60
2019-04-10T00:37:27.229Z,12.73
2019-04-10T00:38:09.774Z,12.50
2019-04-10T00:38:56.081Z,12.63
2019-04-10T00:39:42.404Z,13.18
2019-04-10T00:40:28.937Z,12.40
2019-04-10T00:41:16.346Z,13.15
2019-04-10T00:42:03.033Z,12.63
2019-04-10T00:42:49.575Z,12.93
2019-04-10T00:43:37.038Z,12.55
2019-04-10T00:44:23.784Z,13.08
2019-04-10T00:45:11.246Z,13.08
2019-04-10T00:45:57.851Z,12.73
2019-04-10T00:46:44.378Z,13.03
2019-04-10T00:47:31.715Z,13.10
2019-04-10T00:48:19.546Z,12.63
2019-04-10T00:49:07.198Z,13.62
2019-04-10T00:49:53.745Z,13.00
2019-04-10T00:50:40.023Z,12.15
2019-04-10T00:51:25.828Z,13.13
2019-04-10T00:52:12.112Z,12.58
2019-04-10T00:52:58.802Z,12.47
2019-04-10T00:53:45.535Z,12.50
2019-04-10T00:54:33.018Z,13.18
2019-04-10T00:55:19.694Z,13.35
2019-04-10T00:56:06.338Z,12.20
2019-04-10T00:56:52.802Z,13.40
2019-04-10T00:57:39.323Z,12.98
2019-04-10T00:58:25.931Z,12.68
2019-04-10T00:59:12.173Z,13.13
2019-04-10T00:59:58.876Z,13.15
2019-04-10T01:00:45.408Z,12.03
2019-04-10T01:01:31.997Z,14.10
2019-04-10T01:02:18.643Z,12.68
2019-04-10T01:03:05.234Z,12.23
2019-04-10T01:03:51.405Z,13.22
2019-04-10T01:04:38.029Z,12.73
2019-04-10T01:05:24.915Z,12.18
2019-04-10T01:06:12.190Z,12.47
2019-04-10T01:07:10.717Z,12.60
2019-04-10T01:07:56.783Z,13.15
2019-04-10T01:08:42.893Z,12.68
2019-04-10T01:09:29.471Z,12.88
2019-04-10T01:10:15.660Z,12.43
2019-04-10T01:11:03.107Z,12.30
2019-04-10T01:11:49.790Z,12.68
2019-04-10T01:12:36.312Z,13.08
2019-04-10T01:13:22.985Z,13.35
2019-04-10T01:14:09.696Z,13.00
2019-04-10T01:14:56.328Z,12.60
2019-04-10T01:15:42.975Z,13.28
2019-04-10T01:16:29.543Z,12.10
2019-04-10T01:17:15.910Z,11.95
2019-04-10T01:18:02.490Z,12.35
2019-04-10T01:18:48.412Z,12.63
2019-04-10T01:19:34.391Z,12.60
2019-04-10T01:20:21.710Z,12.85
2019-04-10T01:21:08.353Z,12.18
2019-04-10T01:21:54.879Z,13.48
2019-04-10T01:22:41.489Z,12.70
2019-04-10T01:23:28.804Z,11.93
2019-04-10T01:24:15.390Z,12.90
2019-04-10T01:25:02.226Z,12.75
2019-04-10T01:25:48.620Z,12.43
2019-04-10T01:26:34.968Z,12.70
2019-04-10T01:27:21.081Z,11.95
2019-04-10T01:28:07.545Z,12.33
2019-04-10T01:28:54.261Z,11.25
2019-04-10T01:29:41.911Z,13.03
2019-04-10T01:30:28.542Z,12.58
2019-04-10T01:31:15.185Z,12.18
2019-04-10T01:32:01.758Z,13.00
2019-04-10T01:32:48.089Z,12.53
2019-04-10T01:33:34.657Z,12.30
2019-04-10T01:34:21.202Z,12.07
2019-04-10T01:35:07.853Z,13.03
2019-04-10T01:35:54.421Z,12.68
2019-04-10T01:36:40.719Z,12.35
2019-04-10T01:37:26.949Z,12.20
2019-04-10T01:38:13.449Z,11.90
2019-04-10T01:38:59.945Z,12.70
2019-04-10T01:39:46.453Z,12.88
2019-04-10T01:40:32.719Z,11.57
2019-04-10T01:41:19.467Z,11.80
2019-04-10T01:42:06.184Z,11.85
2019-04-10T01:43:02.345Z,11.38
2019-04-10T01:43:41.231Z,11.80
2019-04-10T01:44:28.796Z,11.93
2019-04-10T01:45:15.395Z,12.65
2019-04-10T01:46:02.076Z,11.68
2019-04-10T01:46:48.658Z,12.05
2019-04-10T01:47:35.233Z,11.22
2019-04-10T01:48:21.767Z,12.33
2019-04-10T01:49:09.189Z,11.78
2019-04-10T01:49:55.780Z,12.28
2019-04-10T01:50:42.365Z,10.82
2019-04-10T01:51:28.681Z,12.47
2019-04-10T01:52:15.164Z,12.05
2019-04-10T01:53:01.660Z,12.25
2019-04-10T01:53:48.213Z,11.83
2019-04-10T01:54:35.352Z,12.00
2019-04-10T01:55:25.744Z,11.85
2019-04-10T01:56:21.292Z,12.00
2019-04-10T01:56:57.736Z,12.68
2019-04-10T01:57:44.252Z,12.37
2019-04-10T01:58:30.327Z,11.35
2019-04-10T01:59:18.047Z,12.35
2019-04-10T02:00:04.722Z,11.70
2019-04-10T02:01:10.164Z,12.03
2019-04-10T02:02:14.868Z,11.85
2019-04-10T02:03:01.475Z,11.90
2019-04-10T02:03:47.649Z,11.60
2019-04-10T02:04:33.914Z,12.00
2019-04-10T02:05:20.701Z,11.68
2019-04-10T02:06:07.267Z,12.30
2019-04-10T02:06:53.832Z,12.00
2019-04-10T02:07:40.318Z,12.47
2019-04-10T02:08:26.447Z,11.15
2019-04-10T02:09:12.872Z,11.97
2019-04-10T02:09:59.519Z,11.63
2019-04-10T02:10:45.713Z,11.15
2019-04-10T02:11:32.279Z,12.47
2019-04-10T02:12:18.661Z,11.93
2019-04-10T02:13:05.984Z,11.90
2019-04-10T02:13:52.043Z,11.10
2019-04-10T02:14:39.206Z,11.28
2019-04-10T02:15:30.074Z,12.18
2019-04-10T02:16:16.777Z,12.23
2019-04-10T02:17:02.973Z,11.33
2019-04-10T02:17:48.861Z,11.55
2019-04-10T02:18:35.210Z,12.20
2019-04-10T02:19:21.895Z,11.95
2019-04-10T02:20:08.782Z,11.43
2019-04-10T02:20:55.659Z,11.43
2019-04-10T02:21:42.186Z,11.30
2019-04-10T02:22:28.718Z,11.60
2019-04-10T02:23:14.838Z,11.30
2019-04-10T02:24:00.956Z,11.22
2019-04-10T02:24:48.113Z,11.70
2019-04-10T02:25:34.256Z,11.70
2019-04-10T02:26:21.251Z,11.30
2019-04-10T02:27:07.906Z,12.28
2019-04-10T02:27:54.509Z,11.35
2019-04-10T02:28:40.811Z,10.82
2019-04-10T02:29:27.976Z,10.95
2019-04-10T02:30:17.556Z,11.35
2019-04-10T02:31:04.547Z,11.20
2019-04-10T02:31:52.666Z,11.12
2019-04-10T02:32:39.441Z,11.60
2019-04-10T02:33:27.512Z,11.28
2019-04-10T02:34:14.942Z,11.28
2019-04-10T02:35:01.297Z,10.53
2019-04-10T02:35:47.968Z,10.68
2019-04-10T02:36:36.177Z,10.98
2019-04-10T02:37:22.998Z,11.10
2019-04-10T02:38:27.492Z,11.12
2019-04-10T02:39:10.065Z,11.20
2019-04-10T02:39:48.411Z,10.93
2019-04-10T02:40:33.654Z,11.63
2019-04-10T02:41:19.736Z,11.68
2019-04-10T02:42:06.355Z,11.33
2019-04-10T02:42:54.682Z,10.95
2019-04-10T02:43:41.165Z,10.30
2019-04-10T02:44:28.778Z,10.95
2019-04-10T02:45:16.784Z,10.85
2019-04-10T02:46:04.104Z,11.22
2019-04-10T02:46:51.872Z,10.98
2019-04-10T02:47:39.044Z,11.43
2019-04-10T02:48:25.320Z,10.55
2019-04-10T02:49:12.267Z,10.78
2019-04-10T02:49:58.715Z,10.40
2019-04-10T02:50:45.191Z,9.98
2019-04-10T02:51:32.473Z,10.72
2019-04-10T02:52:20.261Z,10.60
2019-04-10T02:53:07.770Z,10.25
2019-04-10T02:53:56.103Z,10.40
2019-04-10T02:54:43.539Z,10.95
2019-04-10T02:55:31.399Z,11.03
2019-04-10T02:56:18.065Z,10.65
2019-04-10T02:57:05.506Z,10.70
2019-04-10T02:57:52.172Z,10.08
2019-04-10T02:58:38.672Z,10.63
2019-04-10T02:59:24.980Z,10.38
2019-04-10T03:00:13.335Z,10.30
2019-04-10T03:01:01.133Z,11.20
2019-04-10T03:01:47.556Z,10.68
2019-04-10T03:02:33.896Z,10.23
2019-04-10T03:03:20.106Z,10.48
2019-04-10T03:04:09.014Z,10.70
2019-04-10T03:04:55.193Z,10.95
2019-04-10T03:05:42.672Z,9.80
2019-04-10T03:06:29.356Z,10.60
2019-04-10T03:07:15.955Z,11.05
2019-04-10T03:08:04.600Z,10.63
2019-04-10T03:09:02.172Z,10.05
2019-04-10T03:09:53.565Z,10.28
2019-04-10T03:10:36.828Z,10.38
2019-04-10T03:11:16.784Z,10.35
2019-04-10T03:12:03.832Z,9.83
2019-04-10T03:12:50.427Z,10.38
2019-04-10T03:13:37.981Z,9.83
2019-04-10T03:14:24.442Z,10.03
2019-04-10T03:15:12.531Z,10.55
2019-04-10T03:16:00.003Z,9.95
2019-04-10T03:16:46.140Z,10.00
2019-04-10T03:17:33.093Z,9.88
2019-04-10T03:18:19.401Z,9.45
2019-04-10T03:19:05.779Z,10.68
2019-04-10T03:19:52.153Z,10.05
2019-04-10T03:20:38.545Z,10.08
2019-04-10T03:21:24.942Z,10.43
2019-04-10T03:22:10.902Z,10.25
2019-04-10T03:22:57.286Z,10.50
2019-04-10T03:23:43.093Z,9.58
2019-04-10T03:24:29.485Z,10.18
2019-04-10T03:25:15.745Z,10.00
2019-04-10T03:26:01.628Z,10.55
2019-04-10T03:26:47.993Z,9.95
2019-04-10T03:27:34.463Z,9.75
2019-04-10T03:28:20.888Z,10.32
2019-04-10T03:29:07.400Z,10.32
2019-04-10T03:29:53.937Z,9.75
2019-04-10T03:30:41.587Z,9.83
2019-04-10T03:31:30.071Z,10.70
2019-04-10T03:32:51.746Z,9.95
2019-04-10T03:33:50.551Z,9.80
2019-04-10T03:34:40.811Z,9.65
2019-04-10T03:35:30.360Z,9.78
2019-04-10T03:36:16.679Z,9.85
2019-04-10T03:37:02.865Z,9.55
2019-04-10T03:37:50.740Z,10.03
2019-04-10T03:38:49.635Z,10.30
2019-04-10T03:39:25.979Z,9.95
2019-04-10T03:40:13.273Z,9.90
2019-04-10T03:40:59.853Z,10.20
2019-04-10T03:41:45.932Z,10.72
2019-04-10T03:42:32.655Z,10.13
2019-04-10T03:43:19.485Z,10.63
2019-04-10T03:44:06.086Z,10.08
2019-04-10T03:44:52.349Z,10.50
2019-04-10T03:45:38.950Z,10.95
2019-04-10T03:46:25.636Z,10.98
2019-04-10T03:47:11.859Z,10.70
2019-04-10T03:47:58.146Z,11.73
2019-04-10T03:48:43.984Z,11.10
2019-04-10T03:49:29.844Z,10.93
2019-04-10T03:50:16.329Z,11.60
2019-04-10T03:51:03.873Z,10.70
2019-04-10T03:51:50.067Z,10.98
2019-04-10T03:52:35.879Z,10.70
2019-04-10T03:53:22.310Z,11.05
2019-04-10T03:54:09.263Z,10.68
2019-04-10T03:54:55.187Z,10.40
2019-04-10T03:55:41.089Z,10.98
2019-04-10T03:56:27.650Z,11.20
2019-04-10T03:57:14.310Z,11.60
2019-04-10T03:58:00.837Z,11.45
2019-04-10T03:58:47.507Z,11.25
2019-04-10T03:59:33.715Z,11.60
2019-04-10T04:00:21.014Z,11.00
2019-04-10T04:01:07.354Z,11.35
2019-04-10T04:01:53.503Z,11.18
2019-04-10T04:02:40.163Z,11.15
2019-04-10T04:03:26.849Z,11.30
2019-04-10T04:04:13.418Z,11.18
2019-04-10T04:05:00.259Z,11.12
2019-04-10T04:05:46.791Z,10.80
2019-04-10T04:06:34.161Z,11.28
2019-04-10T04:07:21.014Z,11.63
2019-04-10T04:08:07.600Z,11.35
2019-04-10T04:09:03.525Z,10.15
2019-04-10T04:09:42.041Z,10.63
2019-04-10T04:10:28.785Z,11.53
2019-04-10T04:11:15.627Z,11.22
2019-04-10T04:12:02.403Z,10.95
2019-04-10T04:12:48.941Z,11.30
2019-04-10T04:13:35.563Z,11.18
2019-04-10T04:14:22.167Z,10.38
2019-04-10T04:15:09.410Z,11.05
2019-04-10T04:15:55.808Z,11.05
2019-04-10T04:16:43.529Z,11.30
2019-04-10T04:17:30.463Z,10.98
2019-04-10T04:18:17.184Z,11.12
2019-04-10T04:19:04.007Z,11.48
2019-04-10T04:19:50.627Z,11.50
2019-04-10T04:20:37.163Z,11.57
2019-04-10T04:21:23.828Z,11.50
2019-04-10T04:22:10.539Z,11.40
2019-04-10T04:22:57.108Z,11.78
2019-04-10T04:23:44.537Z,11.60
2019-04-10T04:24:31.602Z,12.35
2019-04-10T04:25:18.193Z,11.10
2019-04-10T04:26:05.051Z,10.80
2019-04-10T04:26:51.487Z,11.50
2019-04-10T04:27:37.839Z,11.70
2019-04-10T04:28:24.336Z,11.03
2019-04-10T04:29:10.314Z,11.30
2019-04-10T04:29:57.269Z,10.45
2019-04-10T04:30:43.643Z,11.83
2019-04-10T04:31:29.565Z,11.88
2019-04-10T04:32:17.692Z,11.88
2019-04-10T04:33:04.766Z,10.98
2019-04-10T04:33:51.216Z,11.43
2019-04-10T04:34:37.526Z,10.85
2019-04-10T04:35:23.484Z,10.68
2019-04-10T04:36:10.326Z,11.30
2019-04-10T04:36:56.608Z,11.43
2019-04-10T04:37:42.933Z,12.50
2019-04-10T04:38:28.925Z,11.20
2019-04-10T04:39:24.409Z,11.65
2019-04-10T04:40:03.879Z,11.12
2019-04-10T04:40:51.294Z,11.95
2019-04-10T04:41:38.058Z,12.00
2019-04-10T04:42:24.476Z,11.88
2019-04-10T04:43:10.982Z,12.20
2019-04-10T04:43:58.530Z,12.35
2019-04-10T04:44:45.396Z,11.45
2019-04-10T04:45:31.622Z,11.75
2019-04-10T04:46:18.391Z,11.60
2019-04-10T04:47:06.188Z,11.88
2019-04-10T04:47:54.024Z,11.90
2019-04-10T04:48:41.260Z,11.55
2019-04-10T04:49:28.402Z,11.40
2019-04-10T04:50:15.640Z,11.95
2019-04-10T04:51:03.164Z,11.55
2019-04-10T04:51:50.718Z,11.12
2019-04-10T04:52:37.062Z,11.43
2019-04-10T04:53:24.621Z,12.28
2019-04-10T04:54:10.575Z,11.40
2019-04-10T04:54:57.326Z,11.73
2019-04-10T04:55:43.332Z,12.50
2019-04-10T04:56:29.229Z,12.50
2019-04-10T04:57:15.497Z,11.70
2019-04-10T04:58:02.694Z,11.70
2019-04-10T04:58:49.686Z,12.37
2019-04-10T04:59:36.558Z,13.15
2019-04-10T05:00:23.621Z,12.33
2019-04-10T05:01:12.674Z,12.28
2019-04-10T05:01:59.667Z,11.85
2019-04-10T05:02:46.940Z,11.65
2019-04-10T05:03:33.626Z,11.88
2019-04-10T05:04:19.899Z,11.90
2019-04-10T05:05:06.618Z,13.00
2019-04-10T05:05:54.000Z,11.48
2019-04-10T05:06:41.809Z,12.30
2019-04-10T05:07:29.493Z,12.43
2019-04-10T05:08:17.391Z,12.23
2019-04-10T05:09:05.469Z,12.80
2019-04-10T05:09:52.491Z,11.88
2019-04-10T05:10:39.859Z,12.40
2019-04-10T05:11:26.597Z,12.33
2019-04-10T05:12:13.409Z,12.68
2019-04-10T05:12:59.942Z,11.73
2019-04-10T05:13:46.807Z,12.47
2019-04-10T05:14:33.039Z,12.80
2019-04-10T05:15:19.146Z,12.65
2019-04-10T05:16:06.110Z,12.13
2019-04-10T05:16:52.945Z,12.58
2019-04-10T05:17:39.436Z,13.03
2019-04-10T05:18:25.794Z,12.65
2019-04-10T05:19:12.266Z,12.47
2019-04-10T05:20:00.880Z,11.75
2019-04-10T05:20:50.475Z,11.95
2019-04-10T05:21:35.318Z,12.40
2019-04-10T05:22:22.322Z,12.53
2019-04-10T05:23:08.880Z,12.33
2019-04-10T05:23:55.453Z,12.05
2019-04-10T05:24:42.516Z,13.15
2019-04-10T05:25:29.405Z,13.40
2019-04-10T05:26:16.558Z,12.68
2019-04-10T05:27:03.125Z,11.78
2019-04-10T05:27:49.152Z,12.18
2019-04-10T05:28:36.215Z,11.85
2019-04-10T05:29:22.803Z,12.30
2019-04-10T05:30:10.496Z,12.50
2019-04-10T05:30:56.974Z,12.60
2019-04-10T05:31:43.287Z,12.85
2019-04-10T05:32:29.444Z,11.93
2019-04-10T05:33:16.238Z,13.00
2019-04-10T05:34:03.065Z,11.75
2019-04-10T05:34:50.407Z,12.73
2019-04-10T05:35:36.892Z,13.70
2019-04-10T05:36:23.585Z,12.93
2019-04-10T05:37:10.105Z,12.07
2019-04-10T05:37:56.626Z,12.53
2019-04-10T05:38:43.979Z,12.93
2019-04-10T05:39:42.370Z,12.53
2019-04-10T05:40:19.643Z,12.58
2019-04-10T05:41:06.949Z,12.75
2019-04-10T05:41:54.759Z,13.10
2019-04-10T05:42:41.575Z,12.10
2019-04-10T05:43:28.176Z,12.20
2019-04-10T05:44:16.480Z,12.50
2019-04-10T05:45:05.049Z,13.13
2019-04-10T05:45:51.205Z,12.53
2019-04-10T05:46:37.107Z,12.20
2019-04-10T05:47:23.467Z,13.30
2019-04-10T05:48:09.504Z,12.47
2019-04-10T05:48:56.068Z,12.25
2019-04-10T05:49:42.294Z,12.98
2019-04-10T05:50:28.607Z,12.33
2019-04-10T05:51:15.145Z,12.40
2019-04-10T05:52:02.039Z,12.10
2019-04-10T05:52:48.762Z,12.00
2019-04-10T05:53:34.849Z,12.05
2019-04-10T05:54:20.860Z,12.35
2019-04-10T05:55:08.730Z,12.28
2019-04-10T05:55:55.812Z,12.43
2019-04-10T05:56:42.703Z,12.07
2019-04-10T05:57:30.598Z,11.70
2019-04-10T05:58:17.573Z,12.90
2019-04-10T05:59:05.200Z,12.73
2019-04-10T05:59:52.332Z,13.53
2019-04-10T06:00:41.010Z,11.93
2019-04-10T06:01:35.235Z,12.05
2019-04-10T06:02:15.813Z,12.47
2019-04-10T06:03:02.136Z,12.60
2019-04-10T06:03:49.763Z,11.97
2019-04-10T06:04:36.075Z,12.05
2019-04-10T06:05:22.358Z,12.20
2019-04-10T06:06:10.716Z,11.95
2019-04-10T06:06:56.999Z,12.25
2019-04-10T06:07:43.503Z,10.75
2019-04-10T06:08:29.839Z,12.18
2019-04-10T06:09:16.349Z,11.40
2019-04-10T06:10:05.596Z,11.95
2019-04-10T06:10:51.919Z,11.12
2019-04-10T06:11:39.424Z,11.75
2019-04-10T06:12:26.535Z,10.75
2019-04-10T06:13:13.044Z,12.35
2019-04-10T06:13:59.388Z,11.75
2019-04-10T06:14:46.318Z,11.45
2019-04-10T06:15:32.938Z,11.90
2019-04-10T06:16:19.555Z,11.55
2019-04-10T06:17:06.076Z,11.63
2019-04-10T06:17:54.508Z,12.05
2019-04-10T06:18:40.687Z,11.20
2019-04-10T06:19:26.927Z,11.28
2019-04-10T06:20:14.210Z,11.60
2019-04-10T06:21:01.418Z,11.55
2019-04-10T06:21:48.201Z,10.80
2019-04-10T06:22:34.801Z,11.60
2019-04-10T06:23:21.282Z,11.65
2019-04-10T06:24:07.887Z,11.18
2019-04-10T06:24:54.448Z,11.50
2019-04-10T06:25:41.933Z,11.83
2019-04-10T06:26:29.891Z,12.00
2019-04-10T06:27:16.418Z,11.80
2019-04-10T06:28:03.155Z,11.43
2019-04-10T06:28:50.483Z,11.57
2019-04-10T06:29:37.187Z,10.70
2019-04-10T06:30:23.894Z,11.90
2019-04-10T06:31:10.372Z,11.80
2019-04-10T06:31:57.947Z,11.25
2019-04-10T06:32:45.343Z,11.57
2019-04-10T06:33:31.878Z,11.20
2019-04-10T06:34:18.807Z,11.45
2019-04-10T06:35:06.491Z,12.25
2019-04-10T06:35:53.076Z,11.55
2019-04-10T06:36:39.639Z,11.43
2019-04-10T06:37:26.291Z,11.08
2019-04-10T06:38:14.698Z,11.53
2019-04-10T06:39:00.955Z,10.80
2019-04-10T06:39:46.977Z,11.12
2019-04-10T06:40:33.459Z,11.20
2019-04-10T06:41:19.875Z,11.53
2019-04-10T06:42:06.627Z,10.60
2019-04-10T06:42:54.654Z,10.72
2019-04-10T06:43:41.282Z,11.40
2019-04-10T06:44:28.009Z,10.58
2019-04-10T06:45:13.935Z,10.82
2019-04-10T06:46:01.062Z,10.53
2019-04-10T06:46:47.331Z,10.40
2019-04-10T06:47:34.021Z,10.15
2019-04-10T06:48:20.228Z,9.98
2019-04-10T06:49:07.794Z,10.63
2019-04-10T06:49:55.470Z,10.88
2019-04-10T06:50:41.638Z,11.15
2019-04-10T06:51:27.483Z,10.30
2019-04-10T06:52:14.426Z,10.65
2019-04-10T06:53:02.833Z,10.72
2019-04-10T06:53:59.966Z,10.63
2019-04-10T06:54:38.631Z,10.23
2019-04-10T06:55:25.072Z,10.20
2019-04-10T06:56:11.411Z,10.20
2019-04-10T06:56:58.621Z,11.15
2019-04-10T06:57:50.958Z,10.20
2019-04-10T06:58:34.009Z,9.68
2019-04-10T06:59:21.153Z,11.38
2019-04-10T07:00:13.779Z,10.70
2019-04-10T07:00:58.324Z,10.45
2019-04-10T07:01:51.373Z,10.53
2019-04-10T07:02:35.994Z,11.15
2019-04-10T07:03:23.199Z,10.00
2019-04-10T07:04:10.026Z,10.88
2019-04-10T07:05:03.031Z,10.45
2019-04-10T07:05:59.585Z,10.13
2019-04-10T07:06:47.210Z,10.75
2019-04-10T07:07:23.781Z,10.68
2019-04-10T07:08:16.258Z,10.45
2019-04-10T07:08:57.127Z,10.05
2019-04-10T07:09:43.666Z,9.93
2019-04-10T07:10:39.561Z,10.45
2019-04-10T07:11:18.541Z,11.18
2019-04-10T07:12:05.135Z,11.22
2019-04-10T07:12:51.574Z,10.48
2019-04-10T07:13:40.079Z,10.13
2019-04-10T07:14:26.777Z,9.93
2019-04-10T07:15:18.517Z,9.15
2019-04-10T07:16:02.220Z,9.90
2019-04-10T07:16:48.561Z,10.40
2019-04-10T07:17:39.476Z,10.10
2019-04-10T07:18:24.224Z,10.53
2019-04-10T07:19:12.991Z,10.05
2019-04-10T07:19:59.747Z,10.68
2019-04-10T07:20:46.367Z,10.10
2019-04-10T07:21:35.557Z,9.98
2019-04-10T07:22:22.877Z,9.10
2019-04-10T07:23:13.861Z,9.73
2019-04-10T07:24:03.241Z,9.98
2019-04-10T07:24:46.689Z,10.35
2019-04-10T07:25:33.159Z,9.40
2019-04-10T07:26:27.907Z,9.23
2019-04-10T07:27:07.816Z,9.43
2019-04-10T07:27:54.464Z,9.50
2019-04-10T07:28:43.956Z,9.67
2019-04-10T07:29:29.647Z,9.33
2019-04-10T07:30:17.416Z,9.20
2019-04-10T07:31:07.233Z,9.77
2019-04-10T07:31:53.272Z,9.57
2019-04-10T07:32:44.643Z,9.03
2019-04-10T07:33:28.956Z,9.33
2019-04-10T07:34:15.133Z,9.83
2019-04-10T07:35:02.899Z,9.80
2019-04-10T07:35:49.956Z,9.40
2019-04-10T07:36:41.679Z,8.53
2019-04-10T07:37:26.954Z,9.87
2019-04-10T07:38:13.951Z,10.23
2019-04-10T07:39:01.487Z,8.90
2019-04-10T07:39:48.889Z,9.70
2019-04-10T07:40:36.817Z,10.47
2019-04-10T07:41:25.945Z,9.30
2019-04-10T07:42:11.707Z,9.27
2019-04-10T07:42:58.727Z,9.80
2019-04-10T07:43:45.073Z,9.73
2019-04-10T07:44:31.128Z,9.80
2019-04-10T07:45:17.269Z,9.97
2019-04-10T07:46:03.853Z,9.63
2019-04-10T07:46:50.799Z,9.83
2019-04-10T07:47:37.984Z,10.90
2019-04-10T07:48:25.110Z,9.50
2019-04-10T07:49:11.714Z,9.73
2019-04-10T07:49:59.895Z,9.95
2019-04-10T07:50:48.534Z,9.85
2019-04-10T07:51:35.154Z,9.63
2019-04-10T07:52:22.924Z,9.50
2019-04-10T07:53:10.486Z,9.55
2019-04-10T07:53:57.724Z,10.30
2019-04-10T07:54:44.944Z,9.43
2019-04-10T07:55:31.497Z,9.45
2019-04-10T07:56:20.722Z,10.00
2019-04-10T07:57:06.331Z,9.68
2019-04-10T07:57:53.203Z,9.70
2019-04-10T07:58:39.951Z,9.43
2019-04-10T07:59:27.170Z,9.13
2019-04-10T08:00:16.037Z,9.10
2019-04-10T08:01:02.328Z,9.78
2019-04-10T08:01:49.421Z,9.60
2019-04-10T08:02:35.581Z,9.28
2019-04-10T08:03:22.887Z,9.80
2019-04-10T08:04:10.342Z,9.30
2019-04-10T08:04:57.929Z,9.58
2019-04-10T08:05:44.138Z,8.63
2019-04-10T08:06:30.498Z,9.45
2019-04-10T08:07:26.676Z,8.55
2019-04-10T08:08:05.169Z,9.75
2019-04-10T08:08:51.330Z,9.68
2019-04-10T08:09:37.768Z,9.28
2019-04-10T08:10:24.275Z,9.00
2019-04-10T08:11:10.591Z,9.08
2019-04-10T08:11:56.993Z,9.78
2019-04-10T08:12:49.089Z,10.15
2019-04-10T08:13:31.400Z,10.38
2019-04-10T08:14:17.734Z,9.80
2019-04-10T08:15:04.962Z,10.20
2019-04-10T08:15:52.145Z,9.08
2019-04-10T08:16:39.401Z,9.20
2019-04-10T08:17:26.267Z,9.15
2019-04-10T08:18:12.516Z,9.40
2019-04-10T08:18:59.712Z,8.25
2019-04-10T08:19:46.227Z,9.35
2019-04-10T08:20:32.874Z,9.35
2019-04-10T08:21:19.758Z,9.35
2019-04-10T08:22:08.300Z,9.20
2019-04-10T08:22:55.317Z,9.90
2019-04-10T08:23:42.465Z,8.75
2019-04-10T08:24:28.551Z,9.35
2019-04-10T08:25:16.227Z,10.55
2019-04-10T08:26:03.568Z,9.28
2019-04-10T08:26:50.262Z,9.28
2019-04-10T08:27:36.871Z,9.15
2019-04-10T08:28:30.283Z,9.50
2019-04-10T08:29:18.162Z,8.83
2019-04-10T08:30:05.886Z,9.73
2019-04-10T08:30:52.518Z,9.48
2019-04-10T08:31:39.652Z,9.85
2019-04-10T08:32:26.320Z,9.95
2019-04-10T08:33:12.735Z,10.03
2019-04-10T08:33:59.268Z,10.53
2019-04-10T08:34:46.451Z,9.80
2019-04-10T08:35:33.598Z,9.75
2019-04-10T08:36:20.133Z,10.05
2019-04-10T08:37:06.835Z,10.55
2019-04-10T08:37:53.231Z,10.40
2019-04-10T08:38:40.123Z,9.58
2019-04-10T08:39:33.970Z,10.68
2019-04-10T08:40:15.727Z,10.23
2019-04-10T08:41:02.836Z,10.35
2019-04-10T08:41:50.086Z,10.08
2019-04-10T08:42:37.238Z,9.93
2019-04-10T08:43:24.458Z,10.28
2019-04-10T08:44:10.905Z,9.83
2019-04-10T08:44:56.891Z,9.88
2019-04-10T08:45:47.063Z,11.12
2019-04-10T08:46:31.251Z,9.60
2019-04-10T08:47:17.675Z,10.90
2019-04-10T08:48:03.985Z,9.78
2019-04-10T08:48:50.461Z,10.85
2019-04-10T08:49:37.100Z,9.80
2019-04-10T08:50:23.235Z,11.18
2019-04-10T08:51:12.446Z,10.23
2019-04-10T08:51:59.807Z,10.60
2019-04-10T08:52:46.567Z,10.08
2019-04-10T08:53:32.719Z,10.28
2019-04-10T08:54:18.887Z,10.00
2019-04-10T08:55:05.975Z,10.53
2019-04-10T08:55:52.691Z,9.80
2019-04-10T08:56:40.756Z,10.30
2019-04-10T08:57:27.752Z,10.08
2019-04-10T08:58:14.490Z,11.73
2019-04-10T08:59:01.085Z,10.60
2019-04-10T08:59:48.232Z,9.98
2019-04-10T09:00:34.703Z,11.05
2019-04-10T09:01:21.231Z,11.15
2019-04-10T09:02:07.355Z,11.00
2019-04-10T09:02:54.481Z,10.15
2019-04-10T09:03:41.340Z,10.45
2019-04-10T09:04:34.062Z,10.63
2019-04-10T09:05:20.000Z,9.70
2019-04-10T09:06:07.083Z,11.30
2019-04-10T09:06:53.298Z,10.90
2019-04-10T09:07:40.095Z,10.98
2019-04-10T09:08:26.758Z,10.58
2019-04-10T09:09:13.143Z,11.00
2019-04-10T09:09:59.376Z,10.58
2019-04-10T09:10:45.339Z,10.80
2019-04-10T09:11:32.613Z,11.00
2019-04-10T09:12:19.813Z,10.60
2019-04-10T09:13:06.450Z,10.90
2019-04-10T09:13:52.836Z,10.93
2019-04-10T09:14:39.304Z,10.78
2019-04-10T09:15:26.023Z,10.75
2019-04-10T09:16:12.429Z,10.13
2019-04-10T09:17:00.640Z,11.55
2019-04-10T09:17:47.214Z,11.03
2019-04-10T09:18:33.607Z,11.05
2019-04-10T09:19:20.446Z,11.88
2019-04-10T09:20:07.091Z,10.85
2019-04-10T09:20:53.487Z,11.40
2019-04-10T09:21:39.965Z,11.03
2019-04-10T09:22:26.070Z,10.50
2019-04-10T09:23:23.753Z,11.05
2019-04-10T09:24:01.311Z,11.03
2019-04-10T09:24:47.342Z,11.48
2019-04-10T09:25:33.474Z,10.58
2019-04-10T09:26:20.338Z,11.60
2019-04-10T09:27:06.758Z,11.60
2019-04-10T09:27:53.932Z,10.88
2019-04-10T09:28:40.718Z,11.60
2019-04-10T09:29:27.920Z,11.15
2019-04-10T09:30:14.229Z,11.95
2019-04-10T09:31:01.676Z,11.55
2019-04-10T09:31:48.250Z,10.72
2019-04-10T09:32:36.804Z,11.83
2019-04-10T09:33:27.752Z,10.95
2019-04-10T09:34:11.794Z,11.88
2019-04-10T09:35:00.251Z,12.30
2019-04-10T09:35:46.811Z,11.45
2019-04-10T09:36:33.336Z,11.45
2019-04-10T09:37:19.907Z,12.18
2019-04-10T09:38:28.489Z,11.38
2019-04-10T09:39:15.616Z,10.80
2019-04-10T09:40:01.927Z,11.97
2019-04-10T09:40:48.816Z,11.38
2019-04-10T09:41:36.196Z,11.68
2019-04-10T09:42:23.621Z,11.88
2019-04-10T09:43:14.213Z,11.97
2019-04-10T09:44:00.723Z,11.93
2019-04-10T09:44:48.603Z,12.15
2019-04-10T09:45:37.265Z,11.50
2019-04-10T09:46:24.823Z,12.35
2019-04-10T09:47:13.038Z,11.80
2019-04-10T09:47:59.988Z,11.95
2019-04-10T09:48:47.612Z,11.43
2019-04-10T09:49:41.527Z,12.30
2019-04-10T09:50:23.450Z,11.60
2019-04-10T09:51:11.772Z,11.55
2019-04-10T09:51:58.625Z,12.23
2019-04-10T09:52:46.212Z,11.93
2019-04-10T09:53:32.968Z,12.13
2019-04-10T09:54:19.743Z,12.13
2019-04-10T09:55:07.556Z,10.78
2019-04-10T09:55:54.546Z,12.10
2019-04-10T09:56:42.140Z,11.83
2019-04-10T09:57:28.710Z,11.55
2019-04-10T09:58:14.874Z,12.60
2019-04-10T09:59:01.404Z,11.90
2019-04-10T09:59:48.980Z,12.10
2019-04-10T10:00:36.047Z,11.97
2019-04-10T10:01:22.558Z,11.88
2019-04-10T10:02:09.226Z,12.80
2019-04-10T10:02:55.557Z,11.43
2019-04-10T10:03:43.050Z,12.23
2019-04-10T10:04:29.262Z,11.68
2019-04-10T10:05:15.995Z,12.60
2019-04-10T10:06:03.490Z,11.18
2019-04-10T10:06:50.095Z,12.23
2019-04-10T10:07:36.871Z,11.63
2019-04-10T10:08:24.728Z,11.25
2019-04-10T10:09:11.081Z,11.75
2019-04-10T10:09:59.683Z,12.35